createdAt,value
2018-06-27T00:00:00.572Z,15.90
2018-06-27T00:02:29.230Z,15.80
2018-06-27T00:04:57.929Z,15.70
2018-06-27T00:07:26.633Z,15.50
2018-06-27T00:09:55.877Z,15.50
2018-06-27T00:14:53.137Z,15.50
2018-06-27T00:19:49.877Z,15.50
2018-06-27T00:22:18.423Z,15.50
2018-06-27T00:24:46.940Z,15.30
2018-06-27T00:27:16.089Z,15.20
2018-06-27T00:29:45.285Z,15.30
2018-06-27T00:32:13.838Z,15.30
2018-06-27T00:34:42.342Z,15.20
2018-06-27T00:37:10.866Z,15.20
2018-06-27T00:39:39.418Z,15.10
2018-06-27T00:42:07.949Z,15.10
2018-06-27T00:44:36.505Z,15.20
2018-06-27T00:47:05.241Z,15.10
2018-06-27T00:52:01.966Z,15.00
2018-06-27T00:54:30.509Z,15.10
2018-06-27T00:56:59.000Z,15.00
2018-06-27T00:59:27.538Z,14.90
2018-06-27T01:01:56.069Z,14.90
2018-06-27T01:04:24.601Z,14.80
2018-06-27T01:06:53.117Z,14.90
2018-06-27T01:09:21.667Z,14.90
2018-06-27T01:12:01.004Z,15.00
2018-06-27T01:14:30.465Z,15.00
2018-06-27T01:16:58.993Z,14.90
2018-06-27T01:19:27.609Z,14.90
2018-06-27T01:21:56.654Z,14.80
2018-06-27T01:24:25.697Z,14.90
2018-06-27T01:26:54.921Z,14.80
2018-06-27T01:29:24.065Z,14.80
2018-06-27T01:31:52.620Z,14.80
2018-06-27T01:34:21.208Z,14.80
2018-06-27T01:36:49.741Z,14.70
2018-06-27T01:39:18.292Z,14.70
2018-06-27T01:41:47.298Z,14.60
2018-06-27T01:44:15.824Z,14.50
2018-06-27T01:46:44.346Z,14.60
2018-06-27T01:49:13.963Z,14.50
2018-06-27T01:51:42.487Z,14.50
2018-06-27T01:54:11.328Z,14.50
2018-06-27T01:56:40.837Z,14.50
2018-06-27T01:59:10.850Z,14.40
2018-06-27T02:01:39.944Z,14.40
2018-06-27T02:04:08.486Z,14.40
2018-06-27T02:06:38.294Z,14.30
2018-06-27T02:11:36.337Z,14.20
2018-06-27T02:14:04.895Z,14.20
2018-06-27T02:16:33.914Z,14.20
2018-06-27T02:19:02.448Z,14.10
2018-06-27T02:21:31.039Z,14.10
2018-06-27T02:23:59.602Z,14.10
2018-06-27T02:26:28.137Z,14.10
2018-06-27T02:28:56.773Z,14.20
2018-06-27T02:31:25.355Z,14.20
2018-06-27T02:33:53.928Z,14.20
2018-06-27T02:38:50.757Z,14.10
2018-06-27T02:41:19.370Z,14.00
2018-06-27T02:43:47.942Z,13.90
2018-06-27T02:46:16.549Z,13.90
2018-06-27T02:51:13.318Z,13.90
2018-06-27T02:56:11.561Z,13.80
2018-06-27T02:58:40.112Z,13.90
2018-06-27T03:01:08.702Z,13.80
2018-06-27T03:03:37.282Z,13.80
2018-06-27T03:06:06.126Z,13.70
2018-06-27T03:08:34.682Z,13.70
2018-06-27T03:11:03.253Z,13.80
2018-06-27T03:13:31.849Z,13.80
2018-06-27T03:16:00.477Z,13.70
2018-06-27T03:18:29.042Z,13.70
2018-06-27T03:20:57.829Z,13.50
2018-06-27T03:23:26.992Z,13.60
2018-06-27T03:25:55.585Z,13.60
2018-06-27T03:28:24.169Z,13.60
2018-06-27T03:30:52.746Z,13.60
2018-06-27T03:33:21.300Z,13.60
2018-06-27T03:35:49.889Z,13.50
2018-06-27T03:40:46.683Z,13.50
2018-06-27T03:43:15.253Z,13.50
2018-06-27T03:45:43.802Z,13.50
2018-06-27T03:48:12.388Z,13.50
2018-06-27T03:50:40.945Z,13.50
2018-06-27T03:53:09.516Z,13.50
2018-06-27T03:55:38.649Z,13.50
2018-06-27T03:58:07.217Z,13.60
2018-06-27T04:00:35.761Z,13.60
2018-06-27T04:03:04.766Z,13.60
2018-06-27T04:05:33.330Z,13.60
2018-06-27T04:08:02.685Z,13.60
2018-06-27T04:10:31.260Z,13.60
2018-06-27T04:12:59.880Z,13.60
2018-06-27T04:15:28.445Z,13.70
2018-06-27T04:17:57.065Z,13.60
2018-06-27T04:20:25.638Z,13.70
2018-06-27T04:22:54.219Z,13.70
2018-06-27T04:25:22.794Z,13.60
2018-06-27T04:27:51.317Z,13.60
2018-06-27T04:30:20.193Z,13.70
2018-06-27T04:32:49.434Z,13.70
2018-06-27T04:35:17.999Z,13.70
2018-06-27T04:37:46.545Z,13.60
2018-06-27T04:40:15.682Z,13.70
2018-06-27T04:42:44.198Z,13.70
2018-06-27T04:45:12.746Z,13.70
2018-06-27T04:47:41.262Z,13.70
2018-06-27T04:50:09.837Z,13.80
2018-06-27T04:52:38.398Z,13.70
2018-06-27T04:55:06.949Z,13.80
2018-06-27T05:00:03.790Z,13.90
2018-06-27T05:02:33.019Z,14.00
2018-06-27T05:05:02.597Z,14.00
2018-06-27T05:07:38.658Z,14.20
2018-06-27T05:10:09.204Z,14.80
2018-06-27T05:12:38.502Z,16.10
2018-06-27T05:17:35.356Z,16.90
2018-06-27T05:20:05.935Z,17.60
2018-06-27T05:22:34.531Z,18.50
2018-06-27T05:25:03.842Z,20.20
2018-06-27T05:27:33.340Z,22.30
2018-06-27T05:32:33.831Z,25.80
2018-06-27T05:35:02.648Z,26.90
2018-06-27T05:37:31.202Z,27.90
2018-06-27T05:40:00.482Z,28.10
2018-06-27T05:42:29.102Z,28.60
2018-06-27T05:47:25.919Z,28.80
2018-06-27T05:49:54.556Z,29.00
2018-06-27T05:52:23.115Z,28.00
2018-06-27T05:54:57.025Z,27.90
2018-06-27T05:57:28.246Z,27.80
2018-06-27T05:59:56.985Z,27.70
2018-06-27T06:02:26.180Z,27.40
2018-06-27T06:04:55.042Z,27.20
2018-06-27T06:07:24.196Z,27.40
2018-06-27T06:09:52.875Z,27.30
2018-06-27T06:12:21.570Z,27.40
2018-06-27T06:14:50.146Z,27.10
2018-06-27T06:17:18.834Z,27.10
2018-06-27T06:19:48.490Z,27.20
2018-06-27T06:22:17.680Z,27.50
2018-06-27T06:24:46.813Z,27.10
2018-06-27T06:27:17.562Z,26.70
2018-06-27T06:29:46.499Z,26.40
2018-06-27T06:32:15.625Z,26.20
2018-06-27T06:34:44.217Z,25.40
2018-06-27T06:37:12.848Z,25.10
2018-06-27T06:39:41.477Z,24.30
2018-06-27T06:42:10.112Z,23.90
2018-06-27T06:44:39.642Z,23.50
2018-06-27T06:47:08.545Z,23.50
2018-06-27T06:49:38.827Z,23.60
2018-06-27T06:52:07.465Z,23.60
2018-06-27T06:54:36.619Z,23.50
2018-06-27T06:57:05.785Z,23.40
2018-06-27T07:02:02.700Z,23.30
2018-06-27T07:04:31.385Z,23.20
2018-06-27T07:07:00.486Z,23.50
2018-06-27T07:09:30.301Z,23.70
2018-06-27T07:12:04.315Z,23.50
2018-06-27T07:14:36.600Z,23.30
2018-06-27T07:17:05.327Z,23.10
2018-06-27T07:19:33.965Z,23.00
2018-06-27T07:22:04.481Z,23.00
2018-06-27T07:24:33.763Z,23.10
2018-06-27T07:27:02.423Z,23.30
2018-06-27T07:29:31.098Z,23.30
2018-06-27T07:34:28.201Z,23.20
2018-06-27T07:36:59.734Z,23.40
2018-06-27T07:39:28.438Z,23.50
2018-06-27T07:41:57.150Z,23.50
2018-06-27T07:44:26.471Z,23.60
2018-06-27T07:46:55.178Z,23.50
2018-06-27T07:51:52.066Z,23.40
2018-06-27T07:54:20.661Z,22.90
2018-06-27T07:56:49.342Z,23.00
2018-06-27T07:59:17.925Z,23.00
2018-06-27T08:01:46.563Z,23.30
2018-06-27T08:04:15.159Z,23.40
2018-06-27T08:06:45.970Z,23.20
2018-06-27T08:09:14.612Z,23.30
2018-06-27T08:11:43.857Z,23.30
2018-06-27T08:14:12.714Z,23.30
2018-06-27T08:16:41.388Z,23.50
2018-06-27T08:19:09.971Z,23.60
2018-06-27T08:21:38.593Z,23.50
2018-06-27T08:24:07.191Z,23.50
2018-06-27T08:26:35.740Z,23.30
2018-06-27T08:29:04.577Z,23.30
2018-06-27T08:31:33.200Z,23.30
2018-06-27T08:36:33.355Z,23.10
2018-06-27T08:39:01.971Z,23.10
2018-06-27T08:41:30.630Z,23.30
2018-06-27T08:43:59.261Z,23.20
2018-06-27T08:46:28.581Z,23.30
2018-06-27T08:51:26.189Z,23.60
2018-06-27T08:53:55.282Z,23.50
2018-06-27T08:56:25.210Z,23.40
2018-06-27T08:58:54.495Z,23.60
2018-06-27T09:01:23.047Z,23.70
2018-06-27T09:03:51.761Z,23.70
2018-06-27T09:06:20.417Z,23.70
2018-06-27T09:08:49.129Z,23.80
2018-06-27T09:11:18.317Z,23.80
2018-06-27T09:13:46.939Z,24.20
2018-06-27T09:16:15.538Z,24.50
2018-06-27T09:18:44.129Z,24.70
2018-06-27T09:21:12.859Z,24.60
2018-06-27T09:23:41.471Z,24.60
2018-06-27T09:26:10.250Z,24.70
2018-06-27T09:28:38.813Z,24.60
2018-06-27T09:33:36.384Z,24.30
2018-06-27T09:36:05.181Z,24.10
2018-06-27T09:38:33.812Z,24.20
2018-06-27T09:41:02.358Z,24.10
2018-06-27T09:46:00.350Z,24.30
2018-06-27T09:50:57.157Z,24.20
2018-06-27T09:53:25.991Z,24.20
2018-06-27T09:55:54.598Z,24.30
2018-06-27T09:58:23.530Z,24.10
2018-06-27T10:00:52.169Z,24.00
2018-06-27T10:03:20.782Z,23.90
2018-06-27T10:05:49.307Z,23.60
2018-06-27T10:08:17.882Z,23.50
2018-06-27T10:10:47.368Z,23.50
2018-06-27T10:13:16.147Z,23.40
2018-06-27T10:15:44.806Z,23.20
2018-06-27T10:18:13.482Z,23.40
2018-06-27T10:23:10.496Z,23.90
2018-06-27T10:25:39.088Z,24.10
2018-06-27T10:28:08.457Z,24.00
2018-06-27T10:30:37.260Z,24.00
2018-06-27T10:33:05.909Z,24.00
2018-06-27T10:35:35.751Z,23.80
2018-06-27T10:38:04.949Z,23.70
2018-06-27T10:40:33.549Z,23.70
2018-06-27T10:43:02.185Z,23.90
2018-06-27T10:48:00.219Z,24.10
2018-06-27T10:50:33.528Z,24.30
2018-06-27T10:53:02.201Z,24.50
2018-06-27T10:55:37.274Z,24.40
2018-06-27T10:58:09.204Z,24.50
2018-06-27T11:00:45.008Z,24.80
2018-06-27T11:03:19.205Z,24.80
2018-06-27T11:05:48.716Z,25.00
2018-06-27T11:08:17.659Z,25.00
2018-06-27T11:10:46.216Z,24.90
2018-06-27T11:15:49.554Z,24.80
2018-06-27T11:18:19.351Z,25.10
2018-06-27T11:20:47.969Z,25.30
2018-06-27T11:23:16.572Z,25.10
2018-06-27T11:25:45.338Z,25.10
2018-06-27T11:28:13.936Z,25.10
2018-06-27T11:30:43.225Z,25.10
2018-06-27T11:33:11.810Z,24.90
2018-06-27T11:35:40.753Z,24.70
2018-06-27T11:38:09.338Z,24.80
2018-06-27T11:40:38.201Z,25.10
2018-06-27T11:43:06.999Z,25.30
2018-06-27T11:45:35.587Z,25.20
2018-06-27T11:48:04.222Z,25.00
2018-06-27T11:50:32.866Z,25.00
2018-06-27T11:53:01.922Z,25.00
2018-06-27T11:55:30.653Z,25.20
2018-06-27T11:57:59.229Z,25.50
2018-06-27T12:00:28.570Z,25.80
2018-06-27T12:02:58.525Z,25.50
2018-06-27T12:05:27.209Z,25.00
2018-06-27T12:07:57.803Z,24.70
2018-06-27T12:10:27.985Z,24.60
2018-06-27T12:12:56.613Z,24.60
2018-06-27T12:17:53.703Z,25.00
2018-06-27T12:20:22.407Z,25.20
2018-06-27T12:22:51.816Z,25.10
2018-06-27T12:25:20.447Z,24.90
2018-06-27T12:27:49.652Z,24.90
2018-06-27T12:30:21.845Z,25.00
2018-06-27T12:32:50.948Z,24.90
2018-06-27T12:35:20.491Z,25.10
2018-06-27T12:40:18.082Z,25.20
2018-06-27T12:45:14.922Z,25.40
2018-06-27T12:47:43.993Z,25.60
2018-06-27T12:50:12.675Z,25.80
2018-06-27T12:52:41.583Z,25.90
2018-06-27T12:55:12.142Z,25.60
2018-06-27T12:57:40.826Z,25.40
2018-06-27T13:00:10.505Z,25.30
2018-06-27T13:02:39.048Z,25.30
2018-06-27T13:05:08.591Z,25.40
2018-06-27T13:07:37.439Z,25.00
2018-06-27T13:12:34.994Z,24.70
2018-06-27T13:15:03.811Z,24.60
2018-06-27T13:17:32.390Z,24.30
2018-06-27T13:22:29.606Z,24.60
2018-06-27T13:24:58.137Z,25.10
2018-06-27T13:27:26.768Z,25.60
2018-06-27T13:29:55.373Z,25.80
2018-06-27T13:32:23.975Z,25.70
2018-06-27T13:34:52.637Z,25.60
2018-06-27T13:37:21.218Z,25.20
2018-06-27T13:39:49.826Z,25.20
2018-06-27T13:42:18.406Z,25.20
2018-06-27T13:44:47.039Z,25.30
2018-06-27T13:47:15.624Z,25.40
2018-06-27T13:49:44.221Z,25.60
2018-06-27T13:52:12.853Z,25.60
2018-06-27T13:54:43.913Z,25.60
2018-06-27T13:57:12.482Z,25.50
2018-06-27T13:59:41.110Z,25.40
2018-06-27T14:02:09.686Z,25.50
2018-06-27T14:04:38.234Z,25.70
2018-06-27T14:07:07.325Z,25.40
2018-06-27T14:09:35.882Z,25.20
2018-06-27T14:12:04.481Z,25.30
2018-06-27T14:14:33.145Z,25.50
2018-06-27T14:17:01.714Z,25.60
2018-06-27T14:19:30.238Z,25.50
2018-06-27T14:21:58.863Z,25.40
2018-06-27T14:24:27.885Z,25.30
2018-06-27T14:26:56.458Z,25.20
2018-06-27T14:29:25.018Z,25.20
2018-06-27T14:34:21.757Z,25.10
2018-06-27T14:36:50.329Z,25.00
2018-06-27T14:39:18.891Z,24.80
2018-06-27T14:41:47.576Z,24.90
2018-06-27T14:44:16.115Z,25.00
2018-06-27T14:46:44.687Z,25.10
2018-06-27T14:49:13.255Z,25.30
2018-06-27T14:51:41.865Z,25.20
2018-06-27T14:56:38.722Z,25.00
2018-06-27T14:59:07.354Z,24.80
2018-06-27T15:01:36.574Z,24.80
2018-06-27T15:04:05.699Z,24.90
2018-06-27T15:06:34.261Z,24.90
2018-06-27T15:09:03.798Z,24.90
2018-06-27T15:11:32.326Z,25.00
2018-06-27T15:14:00.878Z,25.00
2018-06-27T15:18:57.638Z,25.10
2018-06-27T15:21:26.920Z,25.00
2018-06-27T15:23:55.504Z,24.90
2018-06-27T15:26:24.033Z,24.90
2018-06-27T15:28:52.635Z,25.00
2018-06-27T15:31:21.175Z,25.10
2018-06-27T15:36:17.975Z,25.10
2018-06-27T15:38:46.559Z,25.00
2018-06-27T15:41:15.810Z,25.10
2018-06-27T15:46:13.352Z,25.40
2018-06-27T15:48:41.874Z,25.50
2018-06-27T15:51:10.430Z,25.40
2018-06-27T15:53:38.970Z,25.10
2018-06-27T15:56:07.512Z,25.00
2018-06-27T15:58:36.080Z,24.80
2018-06-27T16:01:04.666Z,24.60
2018-06-27T16:03:33.217Z,24.50
2018-06-27T16:06:02.448Z,24.50
2018-06-27T16:08:31.645Z,24.70
2018-06-27T16:11:00.206Z,24.70
2018-06-27T16:13:28.734Z,24.70
2018-06-27T16:18:25.514Z,24.80
2018-06-27T16:23:22.255Z,24.60
2018-06-27T16:25:50.866Z,24.70
2018-06-27T16:28:19.473Z,24.60
2018-06-27T16:30:48.385Z,24.60
2018-06-27T16:33:16.946Z,24.70
2018-06-27T16:35:45.524Z,24.80
2018-06-27T16:38:14.072Z,24.70
2018-06-27T16:40:42.643Z,24.50
2018-06-27T16:43:11.880Z,24.30
2018-06-27T16:45:40.414Z,24.20
2018-06-27T16:48:09.707Z,24.10
2018-06-27T16:50:39.004Z,24.00
2018-06-27T16:53:07.522Z,24.00
2018-06-27T16:58:04.383Z,24.20
2018-06-27T17:03:01.954Z,24.20
2018-06-27T17:05:30.633Z,24.20
2018-06-27T17:07:59.278Z,24.20
2018-06-27T17:10:28.214Z,24.20
2018-06-27T17:12:57.579Z,24.20
2018-06-27T17:15:26.305Z,24.10
2018-06-27T17:20:24.261Z,24.00
2018-06-27T17:22:52.837Z,24.00
2018-06-27T17:25:22.120Z,24.00
2018-06-27T17:27:51.466Z,24.00
2018-06-27T17:30:20.767Z,24.00
2018-06-27T17:32:49.309Z,24.00
2018-06-27T17:35:17.906Z,24.00
2018-06-27T17:37:46.553Z,24.00
2018-06-27T17:40:15.102Z,24.00
2018-06-27T17:42:43.869Z,24.00
2018-06-27T17:47:40.690Z,23.90
2018-06-27T17:52:37.529Z,23.80
2018-06-27T17:55:06.110Z,23.70
2018-06-27T17:57:35.357Z,23.80
2018-06-27T18:00:04.960Z,23.70
2018-06-27T18:02:33.617Z,23.70
2018-06-27T18:05:02.197Z,23.70
2018-06-27T18:07:31.122Z,23.60
2018-06-27T18:09:59.738Z,23.60
2018-06-27T18:12:28.509Z,23.50
2018-06-27T18:14:57.090Z,23.50
2018-06-27T18:17:25.727Z,23.40
2018-06-27T18:19:54.488Z,23.30
2018-06-27T18:22:23.134Z,23.40
2018-06-27T18:24:51.748Z,23.40
2018-06-27T18:27:20.346Z,23.30
2018-06-27T18:29:48.885Z,23.30
2018-06-27T18:34:45.642Z,23.40
2018-06-27T18:39:42.434Z,23.40
2018-06-27T18:42:10.977Z,23.30
2018-06-27T18:47:07.711Z,23.20
2018-06-27T18:49:36.258Z,23.10
2018-06-27T18:52:04.870Z,23.00
2018-06-27T18:54:33.449Z,23.00
2018-06-27T18:57:02.011Z,23.00
2018-06-27T18:59:30.517Z,23.00
2018-06-27T19:01:59.109Z,22.90
2018-06-27T19:04:28.660Z,22.80
2018-06-27T19:09:25.448Z,22.80
2018-06-27T19:11:54.038Z,22.50
2018-06-27T19:14:22.585Z,22.40
2018-06-27T19:16:51.169Z,22.30
2018-06-27T19:19:19.737Z,22.20
2018-06-27T19:21:48.337Z,22.20
2018-06-27T19:26:45.937Z,22.00
2018-06-27T19:29:14.550Z,21.90
2018-06-27T19:31:43.146Z,21.80
2018-06-27T19:34:11.926Z,21.60
2018-06-27T19:36:40.484Z,21.40
2018-06-27T19:39:10.845Z,21.30
2018-06-27T19:41:39.905Z,21.20
2018-06-27T19:44:09.154Z,21.00
2018-06-27T19:46:37.711Z,20.80
2018-06-27T19:49:06.549Z,20.60
2018-06-27T19:51:35.211Z,20.50
2018-06-27T19:54:04.538Z,20.30
2018-06-27T19:56:33.118Z,20.30
2018-06-27T20:01:29.980Z,20.10
2018-06-27T20:06:26.969Z,20.20
2018-06-27T20:08:56.467Z,20.10
2018-06-27T20:11:25.790Z,20.00
2018-06-27T20:13:54.409Z,19.90
2018-06-27T20:16:23.075Z,19.80
2018-06-27T20:18:51.616Z,19.70
2018-06-27T20:23:48.466Z,19.50
2018-06-27T20:28:45.527Z,19.40
2018-06-27T20:31:15.078Z,19.30
2018-06-27T20:33:43.610Z,19.30
2018-06-27T20:36:12.319Z,19.20
2018-06-27T20:41:09.880Z,19.00
2018-06-27T20:43:38.457Z,19.00
2018-06-27T20:46:07.726Z,18.90
2018-06-27T20:48:36.922Z,18.80
2018-06-27T20:51:05.565Z,18.80
2018-06-27T20:56:02.400Z,18.70
2018-06-27T20:58:30.987Z,18.70
2018-06-27T21:00:59.617Z,18.70
2018-06-27T21:03:28.787Z,18.60
2018-06-27T21:08:26.225Z,18.50
2018-06-27T21:10:54.896Z,18.50
2018-06-27T21:13:23.612Z,18.40
2018-06-27T21:15:52.762Z,18.30
2018-06-27T21:18:21.320Z,18.30
2018-06-27T21:23:18.734Z,18.10
2018-06-27T21:25:47.290Z,18.00
2018-06-27T21:30:44.162Z,18.00
2018-06-27T21:33:12.713Z,17.80
2018-06-27T21:35:42.197Z,17.80
2018-06-27T21:38:11.316Z,17.70
2018-06-27T21:40:40.784Z,17.70
2018-06-27T21:43:09.352Z,17.60
2018-06-27T21:45:38.545Z,17.60
2018-06-27T21:48:07.082Z,17.60
2018-06-27T21:50:35.608Z,17.60
2018-06-27T21:53:04.178Z,17.40
2018-06-27T21:55:32.794Z,17.40
2018-06-27T21:58:01.396Z,17.40
2018-06-27T22:00:31.966Z,17.30
2018-06-27T22:05:29.263Z,17.10
2018-06-27T22:07:57.832Z,17.10
2018-06-27T22:10:26.386Z,16.90
2018-06-27T22:12:55.558Z,17.00
2018-06-27T22:15:24.198Z,17.00
2018-06-27T22:17:52.770Z,17.00
2018-06-27T22:20:27.693Z,16.90
2018-06-27T22:22:56.242Z,16.80
2018-06-27T22:25:24.863Z,16.80
2018-06-27T22:27:54.147Z,16.80
2018-06-27T22:30:22.689Z,16.70
2018-06-27T22:32:51.907Z,16.60
2018-06-27T22:35:20.454Z,16.50
2018-06-27T22:40:17.679Z,16.50
2018-06-27T22:42:46.266Z,16.40
2018-06-27T22:45:14.809Z,16.40
2018-06-27T22:47:43.327Z,16.50
2018-06-27T22:50:12.455Z,16.30
2018-06-27T22:52:41.004Z,16.30
2018-06-27T22:55:09.574Z,16.30
2018-06-27T22:57:38.185Z,16.40
2018-06-27T23:00:07.490Z,16.30
2018-06-27T23:02:36.013Z,16.30
2018-06-27T23:05:04.702Z,16.30
2018-06-27T23:07:33.277Z,16.20
2018-06-27T23:12:30.243Z,16.00
2018-06-27T23:14:58.755Z,15.90
2018-06-27T23:17:27.339Z,16.00
2018-06-27T23:19:55.886Z,16.10
2018-06-27T23:24:58.283Z,16.00
2018-06-27T23:29:55.178Z,15.90
2018-06-27T23:32:23.779Z,15.90
2018-06-27T23:34:52.314Z,15.80
2018-06-27T23:39:49.098Z,15.60
2018-06-27T23:42:17.668Z,15.60
2018-06-27T23:44:46.390Z,15.60
2018-06-27T23:47:14.970Z,15.60
2018-06-27T23:49:43.613Z,15.60
2018-06-27T23:52:12.215Z,15.60
2018-06-27T23:54:40.759Z,15.50
2018-06-27T23:57:09.297Z,15.50
2018-06-27T23:59:37.934Z,15.50
